Time;durP1;ratioP1;P1;durP2;ratioP2;P2;SDS_P1;SDS_P2;PMS_P1;PMS_P2;Temp;Humidity;BMP_temperature;BMP_pressure;BME280_temperature;BME280_humidity;BME280_pressure;Samples;Min_cycle;Max_cycle;Signal;HPM_P1;HPM_P2
2022/12/03 00:00:33;;;;;;;;;;;2.10;99.90;;;;;;5031984;28;19996;-70
2022/12/03 00:02:58;;;;;;;;;;;2.10;99.90;;;;;;5032269;28;19990;-70
2022/12/03 00:05:24;;;;;;;;;;;2.10;99.90;;;;;;5030380;28;20011;-70
2022/12/03 00:07:49;;;;;;;;;;;2.10;99.90;;;;;;5036340;28;19955;-70
2022/12/03 00:10:15;;;;;;;;;;;2.10;99.90;;;;;;5035801;28;19916;-70
2022/12/03 00:12:40;;;;;;;;;;;2.10;99.90;;;;;;5030800;28;19913;-70
2022/12/03 00:15:07;;;;;;;;;;;2.10;99.90;;;;;;5031410;28;19911;-71
2022/12/03 00:17:32;;;;;;;;;;;2.10;99.90;;;;;;5035954;28;19913;-71
2022/12/03 00:19:58;;;;;;;;;;;2.10;99.90;;;;;;5031842;28;19931;-71
2022/12/03 00:22:23;;;;;;;;;;;2.10;99.90;;;;;;5035842;28;20011;-70
2022/12/03 00:24:49;;;;;;;;;;;2.10;99.90;;;;;;5032013;28;20020;-70
2022/12/03 00:27:14;;;;;;;;;;;2.10;99.90;;;;;;5036381;28;19908;-70
2022/12/03 00:29:40;;;;;;;;;;;2.00;99.90;;;;;;5036442;28;19916;-70
2022/12/03 00:32:05;;;;;;;;;;;2.10;99.90;;;;;;5036241;28;19967;-70
2022/12/03 00:34:31;;;;;;;;;;;2.10;99.90;;;;;;5031031;28;19958;-70
2022/12/03 00:36:56;;;;;;;;;;;2.10;99.90;;;;;;5032539;28;20300;-69
2022/12/03 00:39:22;;;;;;;;;;;2.10;99.90;;;;;;5036273;28;19909;-75
2022/12/03 00:41:47;;;;;;;;;;;2.10;99.90;;;;;;5035015;28;20296;-70
2022/12/03 00:44:13;;;;;;;;;;;2.10;99.90;;;;;;5021700;28;19909;-70
2022/12/03 00:46:38;;;;;;;;;;;2.10;99.90;;;;;;5027508;28;19982;-70
2022/12/03 00:49:04;;;;;;;;;;;2.00;99.90;;;;;;5022383;28;19917;-73
2022/12/03 00:51:29;;;;;;;;;;;2.10;99.90;;;;;;5026055;28;19939;-70
2022/12/03 00:53:55;;;;;;;;;;;2.10;99.90;;;;;;5021443;28;19987;-71
2022/12/03 00:56:20;;;;;;;;;;;2.20;99.90;;;;;;5032719;28;20208;-70
2022/12/03 00:58:46;;;;;;;;;;;2.10;99.90;;;;;;5035404;28;19905;-70
2022/12/03 01:01:12;;;;;;;;;;;2.10;99.90;;;;;;5035026;28;20398;-70
2022/12/03 01:03:37;;;;;;;;;;;2.10;99.90;;;;;;5026625;28;19920;-70
2022/12/03 01:06:03;;;;;;;;;;;2.10;99.90;;;;;;5028649;28;20289;-77
2022/12/03 01:08:28;;;;;;;;;;;2.10;99.90;;;;;;5025079;28;19915;-71
2022/12/03 01:10:54;;;;;;;;;;;2.20;99.90;;;;;;5026432;28;20361;-70
2022/12/03 01:13:19;;;;;;;;;;;2.10;99.90;;;;;;5025181;28;19917;-70
2022/12/03 01:15:45;;;;;;;;;;;2.20;99.90;;;;;;5025969;28;19913;-74
2022/12/03 01:18:10;;;;;;;;;;;2.20;99.90;;;;;;5034085;28;19979;-70
2022/12/03 01:20:37;;;;;;;;;;;2.20;99.90;;;;;;5034301;28;20373;-70
2022/12/03 01:23:03;;;;;;;;;;;2.20;99.90;;;;;;5025770;28;19924;-70
2022/12/03 01:25:28;;;;;;;;;;;2.20;99.90;;;;;;5029939;28;19908;-70
2022/12/03 01:27:54;;;;;;;;;;;2.20;99.90;;;;;;5032835;28;20358;-70
2022/12/03 01:30:19;;;;;;;;;;;2.20;99.90;;;;;;5032430;28;19905;-70
2022/12/03 01:32:45;;;;;;;;;;;2.20;99.90;;;;;;5025012;28;19910;-70
2022/12/03 01:35:11;;;;;;;;;;;2.20;99.90;;;;;;5024206;28;20036;-70
2022/12/03 01:37:36;;;;;;;;;;;2.20;99.90;;;;;;5025784;28;19910;-70
2022/12/03 01:40:02;;;;;;;;;;;2.20;99.90;;;;;;5032027;28;20267;-70
2022/12/03 01:42:30;;;;;;;;;;;2.20;99.90;;;;;;5028572;28;19924;-70
2022/12/03 01:44:57;;;;;;;;;;;2.20;99.90;;;;;;5034652;28;19936;-70
2022/12/03 01:47:33;;;;;;;;;;;2.20;99.90;;;;;;5033586;28;19913;-70
2022/12/03 01:50:01;;;;;;;;;;;2.20;99.90;;;;;;5033101;28;19905;-70
2022/12/03 01:52:29;;;;;;;;;;;2.20;99.90;;;;;;5029459;28;19966;-70
2022/12/03 01:54:57;;;;;;;;;;;2.20;99.90;;;;;;5034051;28;19909;-70
2022/12/03 01:57:23;;;;;;;;;;;2.20;99.90;;;;;;5013336;28;19918;-71
2022/12/03 01:59:49;;;;;;;;;;;2.20;99.90;;;;;;5035053;28;19912;-70
2022/12/03 02:02:34;;;;;;;;;;;2.20;99.90;;;;;;5030385;28;19913;-70
2022/12/03 02:05:03;;;;;;;;;;;2.30;99.90;;;;;;5029527;28;20304;-70
2022/12/03 02:07:29;;;;;;;;;;;2.30;99.90;;;;;;5032052;28;20007;-70
2022/12/03 02:09:57;;;;;;;;;;;2.30;99.90;;;;;;5028789;28;19905;-70
2022/12/03 02:12:29;;;;;;;;;;;2.30;99.90;;;;;;5026954;28;19986;-70
2022/12/03 02:14:54;;;;;;;;;;;2.30;99.90;;;;;;5034285;28;19999;-69
2022/12/03 02:17:20;;;;;;;;;;;2.40;99.90;;;;;;5023227;28;20273;-70
2022/12/03 02:19:46;;;;;;;;;;;2.40;99.90;;;;;;5029548;28;20271;-71
2022/12/03 02:22:12;;;;;;;;;;;2.40;99.90;;;;;;5034790;28;19920;-70
2022/12/03 02:24:45;;;;;;;;;;;2.40;99.90;;;;;;5030577;28;20213;-70
2022/12/03 02:27:11;;;;;;;;;;;2.40;99.90;;;;;;5028268;28;19909;-71
2022/12/03 02:29:37;;;;;;;;;;;2.40;99.90;;;;;;5027274;28;20595;-70
2022/12/03 02:32:02;;;;;;;;;;;2.40;99.90;;;;;;5033264;28;19917;-70
2022/12/03 02:34:32;;;;;;;;;;;2.50;99.90;;;;;;5034134;28;20000;-71
2022/12/03 02:36:57;;;;;;;;;;;2.40;99.90;;;;;;5032447;28;19909;-70
2022/12/03 02:39:23;;;;;;;;;;;2.50;99.90;;;;;;5033542;28;20035;-70
2022/12/03 02:44:33;;;;;;;;;;;2.50;99.90;;;;;;5034787;28;19936;-70
2022/12/03 02:46:59;;;;;;;;;;;2.50;99.90;;;;;;5029685;28;20292;-71
2022/12/03 02:49:25;;;;;;;;;;;2.50;99.90;;;;;;5034584;28;19988;-70
2022/12/03 02:51:50;;;;;;;;;;;2.60;99.90;;;;;;5031791;28;20012;-71
2022/12/03 02:54:16;;;;;;;;;;;2.60;99.90;;;;;;5028706;28;19909;-70
2022/12/03 02:56:41;;;;;;;;;;;2.60;99.90;;;;;;5027999;28;20311;-70
2022/12/03 02:59:07;;;;;;;;;;;2.60;99.90;;;;;;5018988;28;19952;-70
2022/12/03 03:01:33;;;;;;;;;;;2.60;99.90;;;;;;5016792;28;19905;-71
2022/12/03 03:03:59;;;;;;;;;;;2.60;99.90;;;;;;5027042;28;19916;-71
2022/12/03 03:06:25;;;;;;;;;;;2.60;99.90;;;;;;5026660;28;20327;-70
2022/12/03 03:08:51;;;;;;;;;;;2.60;99.90;;;;;;5027608;28;19955;-70
2022/12/03 03:11:16;;;;;;;;;;;2.60;99.90;;;;;;5028107;28;19913;-70
2022/12/03 03:13:42;;;;;;;;;;;2.70;99.90;;;;;;5027512;28;20350;-79
2022/12/03 03:16:08;;;;;;;;;;;2.70;99.90;;;;;;5018209;28;20047;-70
2022/12/03 03:18:33;;;;;;;;;;;2.70;99.90;;;;;;5030036;28;19992;-70
2022/12/03 03:21:01;;;;;;;;;;;2.70;99.90;;;;;;5026561;28;19940;-70
2022/12/03 03:23:27;;;;;;;;;;;2.70;99.90;;;;;;5034040;28;19905;-71
2022/12/03 03:25:57;;;;;;;;;;;2.70;99.90;;;;;;5034407;28;19931;-70
2022/12/03 03:28:24;;;;;;;;;;;2.70;99.90;;;;;;5023274;28;19913;-70
2022/12/03 03:30:49;;;;;;;;;;;2.70;99.90;;;;;;5036006;28;20015;-70
2022/12/03 03:33:15;;;;;;;;;;;2.80;99.90;;;;;;5020840;28;19909;-70
2022/12/03 03:35:42;;;;;;;;;;;2.80;99.90;;;;;;5035727;28;19999;-70
2022/12/03 03:38:08;;;;;;;;;;;2.80;99.90;;;;;;5023294;28;20072;-70
2022/12/03 03:40:33;;;;;;;;;;;2.80;99.90;;;;;;5032511;28;19909;-77
2022/12/03 03:42:59;;;;;;;;;;;2.80;99.90;;;;;;5032833;28;19912;-78
2022/12/03 03:45:25;;;;;;;;;;;2.80;99.90;;;;;;5031315;28;19909;-70
2022/12/03 03:47:51;;;;;;;;;;;2.80;99.90;;;;;;5036168;28;19915;-77
2022/12/03 03:50:17;;;;;;;;;;;2.90;99.90;;;;;;5033255;28;19905;-69
2022/12/03 03:52:42;;;;;;;;;;;2.80;99.90;;;;;;5036824;28;19913;-70
2022/12/03 03:55:09;;;;;;;;;;;2.90;99.90;;;;;;5034645;28;20350;-70
2022/12/03 03:57:34;;;;;;;;;;;2.90;99.90;;;;;;5034302;28;20008;-73
2022/12/03 04:00:00;;;;;;;;;;;2.90;99.90;;;;;;5033974;28;20004;-70
2022/12/03 04:02:26;;;;;;;;;;;2.90;99.90;;;;;;5034053;28;19996;-70
2022/12/03 04:04:52;;;;;;;;;;;2.90;99.90;;;;;;5036091;28;19909;-69
2022/12/03 04:07:17;;;;;;;;;;;2.90;99.90;;;;;;5030566;28;19940;-70
2022/12/03 04:09:43;;;;;;;;;;;3.00;99.90;;;;;;5032640;28;19908;-69
2022/12/03 04:14:54;;;;;;;;;;;2.90;99.90;;;;;;5028198;28;20254;-70
2022/12/03 04:17:19;;;;;;;;;;;2.90;99.90;;;;;;5035818;28;19913;-70
2022/12/03 04:19:45;;;;;;;;;;;2.90;99.90;;;;;;5037379;28;19916;-69
2022/12/03 04:28:47;;;;;;;;;;;2.90;99.90;;;;;;5031690;28;20215;-70
2022/12/03 04:30:24;;;;;;;;;;;2.90;99.90;;;;;;5027343;28;20299;-70
2022/12/03 04:35:43;;;;;;;;;;;2.90;99.90;;;;;;5028037;28;19959;-70
2022/12/03 04:38:13;;;;;;;;;;;2.90;99.90;;;;;;5035911;28;19911;-69
2022/12/03 04:43:23;;;;;;;;;;;2.90;99.90;;;;;;5030796;28;19921;-78
2022/12/03 04:45:48;;;;;;;;;;;2.90;99.90;;;;;;5024584;28;19905;-69
2022/12/03 04:48:14;;;;;;;;;;;2.90;99.90;;;;;;5017939;28;19913;-70
2022/12/03 04:50:39;;;;;;;;;;;2.90;99.90;;;;;;5027519;28;19909;-70
2022/12/03 04:53:05;;;;;;;;;;;2.90;99.90;;;;;;5033327;28;19913;-73
2022/12/03 04:55:30;;;;;;;;;;;2.90;99.90;;;;;;5028668;28;19963;-70
2022/12/03 04:57:56;;;;;;;;;;;2.90;99.90;;;;;;5031621;28;19909;-70
2022/12/03 05:00:21;;;;;;;;;;;2.90;99.90;;;;;;5024004;28;19948;-69
2022/12/03 05:02:47;;;;;;;;;;;2.90;99.90;;;;;;5033340;28;19921;-70
2022/12/03 05:05:12;;;;;;;;;;;2.90;99.90;;;;;;5035024;28;20292;-70
2022/12/03 05:07:38;;;;;;;;;;;2.90;99.90;;;;;;5026896;28;19909;-70
2022/12/03 05:10:04;;;;;;;;;;;2.90;99.90;;;;;;5035803;28;19953;-76
2022/12/03 05:12:30;;;;;;;;;;;2.90;99.90;;;;;;5033526;28;20580;-70
2022/12/03 05:14:55;;;;;;;;;;;2.90;99.90;;;;;;5026572;28;19905;-72
2022/12/03 05:17:21;;;;;;;;;;;2.90;99.90;;;;;;5035634;28;20301;-70
2022/12/03 05:22:30;;;;;;;;;;;2.90;99.90;;;;;;5029576;28;20281;-70
2022/12/03 05:24:56;;;;;;;;;;;2.90;99.90;;;;;;5024952;28;19905;-70
2022/12/03 05:27:21;;;;;;;;;;;2.90;99.90;;;;;;5034688;28;19951;-70
2022/12/03 05:29:47;;;;;;;;;;;2.80;99.90;;;;;;5031481;28;19913;-70
2022/12/03 05:32:12;;;;;;;;;;;2.90;99.90;;;;;;5023280;28;19909;-70
2022/12/03 05:34:38;;;;;;;;;;;2.90;99.90;;;;;;5022193;28;19916;-77
2022/12/03 05:37:03;;;;;;;;;;;2.90;99.90;;;;;;5035241;28;19916;-70
2022/12/03 05:39:29;;;;;;;;;;;2.90;99.90;;;;;;5028214;28;19916;-69
2022/12/03 05:44:39;;;;;;;;;;;2.90;99.90;;;;;;5030524;28;19954;-71
2022/12/03 05:47:04;;;;;;;;;;;2.90;99.90;;;;;;5027077;28;20000;-70
2022/12/03 05:49:30;;;;;;;;;;;2.90;99.90;;;;;;5034386;28;19904;-70
2022/12/03 05:51:55;;;;;;;;;;;2.90;99.90;;;;;;5035144;28;19909;-71
2022/12/03 05:54:21;;;;;;;;;;;2.90;99.90;;;;;;5030776;28;19909;-76
2022/12/03 05:56:46;;;;;;;;;;;2.90;99.90;;;;;;5027104;28;19952;-70
2022/12/03 05:59:12;;;;;;;;;;;2.90;99.90;;;;;;5023631;28;19909;-74
2022/12/03 06:01:38;;;;;;;;;;;2.90;99.90;;;;;;5032270;28;19999;-70
2022/12/03 06:04:03;;;;;;;;;;;2.80;99.90;;;;;;5021921;28;19909;-70
2022/12/03 06:06:29;;;;;;;;;;;2.90;99.90;;;;;;5029383;28;19909;-70
2022/12/03 06:08:54;;;;;;;;;;;2.80;99.90;;;;;;5033976;28;19963;-73
2022/12/03 06:11:20;;;;;;;;;;;2.80;99.90;;;;;;5023645;28;19913;-70
2022/12/03 06:13:45;;;;;;;;;;;2.80;99.90;;;;;;5033192;28;19909;-69
2022/12/03 06:16:11;;;;;;;;;;;2.80;99.90;;;;;;5033448;28;19947;-70
2022/12/03 06:18:36;;;;;;;;;;;2.80;99.90;;;;;;5019330;28;19913;-70
2022/12/03 06:21:02;;;;;;;;;;;2.80;99.90;;;;;;5018706;28;19921;-70
2022/12/03 06:23:28;;;;;;;;;;;2.80;99.90;;;;;;5033607;28;19909;-70
2022/12/03 06:25:53;;;;;;;;;;;2.80;99.90;;;;;;5014967;28;20363;-70
2022/12/03 06:28:19;;;;;;;;;;;2.80;99.90;;;;;;5026971;28;20332;-70
2022/12/03 06:30:44;;;;;;;;;;;2.80;99.90;;;;;;5017786;28;19971;-70
2022/12/03 06:33:10;;;;;;;;;;;2.80;99.90;;;;;;5034115;28;19967;-70
2022/12/03 06:35:35;;;;;;;;;;;2.80;99.90;;;;;;5023677;28;20484;-71
2022/12/03 06:38:01;;;;;;;;;;;2.80;99.90;;;;;;5019313;28;20289;-69
2022/12/03 06:40:26;;;;;;;;;;;2.80;99.90;;;;;;5028357;28;20028;-69
2022/12/03 06:42:52;;;;;;;;;;;2.80;99.90;;;;;;5034270;28;20007;-70
2022/12/03 06:45:17;;;;;;;;;;;2.80;99.90;;;;;;5028869;28;19919;-69
2022/12/03 06:47:43;;;;;;;;;;;2.80;99.90;;;;;;5033397;28;19920;-70
2022/12/03 06:50:08;;;;;;;;;;;2.80;99.90;;;;;;5022389;28;19957;-70
2022/12/03 06:52:34;;;;;;;;;;;2.80;99.90;;;;;;5034105;28;19924;-70
2022/12/03 06:55:00;;;;;;;;;;;2.80;99.90;;;;;;5029372;28;20000;-73
2022/12/03 06:57:25;;;;;;;;;;;2.80;99.90;;;;;;5031721;28;20364;-70
2022/12/03 06:59:51;;;;;;;;;;;2.80;99.90;;;;;;5033018;28;19927;-70
2022/12/03 07:02:16;;;;;;;;;;;2.80;99.90;;;;;;5032314;28;20481;-70
2022/12/03 07:04:42;;;;;;;;;;;2.80;99.90;;;;;;5036613;28;20227;-70
2022/12/03 07:07:07;;;;;;;;;;;2.80;99.90;;;;;;5035457;28;20006;-71
2022/12/03 07:09:33;;;;;;;;;;;2.80;99.90;;;;;;5034928;28;19909;-69
2022/12/03 07:11:58;;;;;;;;;;;2.80;99.90;;;;;;5032375;28;19920;-70
2022/12/03 07:14:24;;;;;;;;;;;2.80;99.90;;;;;;5036099;28;19913;-70
2022/12/03 07:16:49;;;;;;;;;;;2.80;99.90;;;;;;5033562;28;19917;-70
2022/12/03 07:19:15;;;;;;;;;;;2.80;99.90;;;;;;5035577;28;19919;-76
2022/12/03 07:21:41;;;;;;;;;;;2.80;99.90;;;;;;5030198;28;19999;-70
2022/12/03 07:24:07;;;;;;;;;;;2.70;99.90;;;;;;5023533;28;20220;-70
2022/12/03 07:26:32;;;;;;;;;;;2.70;99.90;;;;;;5029530;28;19940;-70
2022/12/03 07:28:58;;;;;;;;;;;2.80;99.90;;;;;;5032662;28;19909;-70
2022/12/03 07:31:23;;;;;;;;;;;2.80;99.90;;;;;;5020674;28;19960;-70
2022/12/03 07:33:49;;;;;;;;;;;2.70;99.90;;;;;;5031721;28;19908;-70
2022/12/03 07:36:14;;;;;;;;;;;2.70;99.90;;;;;;5037333;28;19916;-70
2022/12/03 07:38:40;;;;;;;;;;;2.80;99.90;;;;;;5033341;28;19905;-71
2022/12/03 07:41:05;;;;;;;;;;;2.80;99.90;;;;;;5027911;28;20315;-70
2022/12/03 07:43:31;;;;;;;;;;;2.80;99.90;;;;;;5019904;28;20212;-70
2022/12/03 07:45:57;;;;;;;;;;;2.80;99.90;;;;;;5031981;28;19916;-70
2022/12/03 07:48:22;;;;;;;;;;;2.80;99.90;;;;;;5035392;28;20250;-70
2022/12/03 07:50:48;;;;;;;;;;;2.80;99.90;;;;;;5036471;28;20315;-70
2022/12/03 07:53:13;;;;;;;;;;;2.80;99.90;;;;;;5028792;28;19909;-70
2022/12/03 07:55:39;;;;;;;;;;;2.70;99.90;;;;;;5028851;28;19905;-70
2022/12/03 07:58:05;;;;;;;;;;;2.70;99.90;;;;;;5035441;28;19916;-70
2022/12/03 08:00:30;;;;;;;;;;;2.60;99.90;;;;;;5029927;28;19935;-70
2022/12/03 08:02:56;;;;;;;;;;;2.60;99.90;;;;;;5032783;28;19988;-70
2022/12/03 08:05:21;;;;;;;;;;;2.60;99.90;;;;;;5034219;28;19909;-70
2022/12/03 08:07:47;;;;;;;;;;;2.60;99.90;;;;;;5028252;28;20372;-70
2022/12/03 08:10:12;;;;;;;;;;;2.60;99.90;;;;;;5029682;28;19998;-70
2022/12/03 08:12:41;;;;;;;;;;;2.60;99.90;;;;;;5030277;28;20055;-75
2022/12/03 08:15:10;;;;;;;;;;;2.60;99.90;;;;;;5029831;28;19916;-71
2022/12/03 08:17:37;;;;;;;;;;;2.60;99.90;;;;;;5034138;28;19905;-70
2022/12/03 08:20:17;;;;;;;;;;;2.60;99.90;;;;;;5035942;28;20331;-70
2022/12/03 08:22:43;;;;;;;;;;;2.60;99.90;;;;;;5023276;28;19920;-70
2022/12/03 08:25:15;;;;;;;;;;;2.60;99.90;;;;;;5027064;28;19955;-72
2022/12/03 08:27:41;;;;;;;;;;;2.60;99.90;;;;;;5021949;28;19948;-75
2022/12/03 08:30:07;;;;;;;;;;;2.60;99.90;;;;;;5031544;28;19998;-70
2022/12/03 08:32:32;;;;;;;;;;;2.60;99.90;;;;;;5031611;28;19951;-70
2022/12/03 08:34:59;;;;;;;;;;;2.60;99.90;;;;;;5033269;28;20293;-72
2022/12/03 08:37:25;;;;;;;;;;;2.50;99.90;;;;;;5030344;28;20315;-69
2022/12/03 08:39:53;;;;;;;;;;;2.40;99.90;;;;;;5031911;28;19912;-79
2022/12/03 08:42:40;;;;;;;;;;;2.50;99.90;;;;;;5034047;28;19995;-71
2022/12/03 08:45:21;;;;;;;;;;;2.40;99.90;;;;;;5031670;28;19944;-72
2022/12/03 08:47:47;;;;;;;;;;;2.30;99.90;;;;;;5029400;28;20266;-70
2022/12/03 08:50:32;;;;;;;;;;;2.30;99.90;;;;;;5035327;28;20063;-70
2022/12/03 08:53:03;;;;;;;;;;;2.30;99.90;;;;;;5034836;28;19912;-76
2022/12/03 08:55:36;;;;;;;;;;;2.30;99.90;;;;;;5030744;28;20217;-71
2022/12/03 08:58:16;;;;;;;;;;;2.30;99.90;;;;;;5036684;28;19909;-76
2022/12/03 09:00:43;;;;;;;;;;;2.40;99.90;;;;;;5036286;28;19994;-70
2022/12/03 09:03:11;;;;;;;;;;;2.50;99.90;;;;;;5033771;28;20338;-71
2022/12/03 09:05:37;;;;;;;;;;;2.40;99.90;;;;;;5029270;28;19924;-70
2022/12/03 09:08:02;;;;;;;;;;;2.40;99.90;;;;;;5030960;28;19913;-80
2022/12/03 09:10:28;;;;;;;;;;;2.40;99.90;;;;;;5030447;28;19929;-71
2022/12/03 09:12:53;;;;;;;;;;;2.40;99.90;;;;;;5031571;28;19905;-71
2022/12/03 09:15:19;;;;;;;;;;;2.40;99.90;;;;;;5028908;28;19999;-76
2022/12/03 09:17:44;;;;;;;;;;;2.40;99.90;;;;;;5027912;28;20215;-74
2022/12/03 09:20:10;;;;;;;;;;;2.50;99.90;;;;;;5016421;28;19917;-71
2022/12/03 09:22:35;;;;;;;;;;;2.40;99.90;;;;;;5018951;28;20308;-70
2022/12/03 09:25:01;;;;;;;;;;;2.40;99.90;;;;;;5033418;28;19913;-72
2022/12/03 09:27:26;;;;;;;;;;;2.40;99.90;;;;;;5022550;28;19913;-70
2022/12/03 09:29:52;;;;;;;;;;;2.40;99.90;;;;;;5026201;28;19916;-71
2022/12/03 09:32:17;;;;;;;;;;;2.40;99.90;;;;;;5032934;28;19938;-71
2022/12/03 09:34:43;;;;;;;;;;;2.40;99.90;;;;;;5024537;28;20268;-70
2022/12/03 09:37:09;;;;;;;;;;;2.40;99.90;;;;;;5035383;28;19932;-70
2022/12/03 09:39:35;;;;;;;;;;;2.40;99.90;;;;;;5030307;28;19999;-70
2022/12/03 09:42:01;;;;;;;;;;;2.40;99.90;;;;;;5034577;28;20208;-69
2022/12/03 09:44:31;;;;;;;;;;;2.40;99.90;;;;;;5035240;28;19905;-76
2022/12/03 09:46:58;;;;;;;;;;;2.40;99.90;;;;;;5026981;28;19932;-70
2022/12/03 09:49:25;;;;;;;;;;;2.40;99.90;;;;;;5029043;28;19909;-70
2022/12/03 09:51:51;;;;;;;;;;;2.50;99.90;;;;;;5028296;28;19996;-76
2022/12/03 09:54:24;;;;;;;;;;;2.50;99.90;;;;;;5024498;28;19909;-70
2022/12/03 09:56:50;;;;;;;;;;;2.50;99.90;;;;;;5032699;28;19966;-70
2022/12/03 09:59:16;;;;;;;;;;;2.50;99.90;;;;;;5026470;28;19959;-70
2022/12/03 10:01:42;;;;;;;;;;;2.50;99.90;;;;;;5031289;28;19972;-70
2022/12/03 10:04:08;;;;;;;;;;;2.50;99.90;;;;;;5029775;28;19920;-71
2022/12/03 10:06:34;;;;;;;;;;;2.50;99.90;;;;;;5026009;28;19909;-76
2022/12/03 10:09:00;;;;;;;;;;;2.40;99.90;;;;;;5030181;28;19904;-70
2022/12/03 10:11:26;;;;;;;;;;;2.40;99.90;;;;;;5031162;28;20327;-70
2022/12/03 10:13:52;;;;;;;;;;;2.40;99.90;;;;;;5018441;28;19998;-70
2022/12/03 10:16:19;;;;;;;;;;;2.30;99.90;;;;;;5032201;28;19916;-70
2022/12/03 10:18:50;;;;;;;;;;;2.30;99.90;;;;;;5032880;28;20219;-70
2022/12/03 10:21:15;;;;;;;;;;;2.30;99.90;;;;;;5033064;28;19924;-70
2022/12/03 10:23:42;;;;;;;;;;;2.40;99.90;;;;;;5033588;28;19905;-70
2022/12/03 10:26:07;;;;;;;;;;;2.30;99.90;;;;;;5033198;28;20354;-70
2022/12/03 10:28:40;;;;;;;;;;;2.30;99.90;;;;;;5031822;28;19909;-70
2022/12/03 10:31:07;;;;;;;;;;;2.30;99.90;;;;;;5031289;28;19916;-70
2022/12/03 10:33:35;;;;;;;;;;;2.30;99.90;;;;;;5026674;28;19917;-75
2022/12/03 10:36:13;;;;;;;;;;;2.30;99.90;;;;;;5031274;28;19916;-70
2022/12/03 10:38:39;;;;;;;;;;;2.30;99.90;;;;;;5033625;28;20201;-70
2022/12/03 10:41:22;;;;;;;;;;;2.30;99.90;;;;;;5032405;28;19909;-73
2022/12/03 10:43:47;;;;;;;;;;;2.30;99.90;;;;;;5034008;28;19909;-70
2022/12/03 10:46:16;;;;;;;;;;;2.30;99.90;;;;;;5035690;28;19909;-75
2022/12/03 10:48:41;;;;;;;;;;;2.30;99.90;;;;;;5034270;28;19905;-71
2022/12/03 10:51:20;;;;;;;;;;;2.30;99.90;;;;;;5030794;28;19917;-70
2022/12/03 10:53:46;;;;;;;;;;;2.30;99.90;;;;;;5031606;28;19912;-71
2022/12/03 10:56:20;;;;;;;;;;;2.30;99.90;;;;;;5029620;28;19924;-70
2022/12/03 10:58:45;;;;;;;;;;;2.30;99.90;;;;;;5032811;28;20008;-70
2022/12/03 11:01:16;;;;;;;;;;;2.30;99.90;;;;;;5034087;28;19999;-70
2022/12/03 11:03:41;;;;;;;;;;;2.30;99.90;;;;;;5023696;28;20299;-70
2022/12/03 11:06:21;;;;;;;;;;;2.40;99.90;;;;;;5033605;28;19920;-70
2022/12/03 11:08:48;;;;;;;;;;;2.40;99.90;;;;;;5028443;28;19905;-71
2022/12/03 11:11:19;;;;;;;;;;;2.40;99.90;;;;;;5028259;28;20002;-70
2022/12/03 11:13:47;;;;;;;;;;;2.40;99.90;;;;;;5030492;28;19920;-72
2022/12/03 11:16:13;;;;;;;;;;;2.40;99.90;;;;;;5033932;28;19913;-74
2022/12/03 11:18:39;;;;;;;;;;;2.40;99.90;;;;;;5032747;28;19912;-70
2022/12/03 11:21:10;;;;;;;;;;;2.30;99.90;;;;;;5020704;28;19921;-70
2022/12/03 11:23:44;;;;;;;;;;;2.30;99.90;;;;;;5034000;28;20323;-71
2022/12/03 11:26:10;;;;;;;;;;;2.30;99.90;;;;;;5028939;28;20410;-70
2022/12/03 11:28:56;;;;;;;;;;;2.30;99.90;;;;;;5024260;28;19905;-70
2022/12/03 11:31:41;;;;;;;;;;;2.30;99.90;;;;;;5020946;28;19913;-70
2022/12/03 11:34:30;;;;;;;;;;;2.30;99.90;;;;;;5033881;28;19954;-71
2022/12/03 11:37:11;;;;;;;;;;;2.20;99.90;;;;;;5025618;28;19909;-70
2022/12/03 11:39:54;;;;;;;;;;;2.20;99.90;;;;;;5023994;28;19913;-70
2022/12/03 11:42:24;;;;;;;;;;;2.20;99.90;;;;;;5034056;28;19936;-70
2022/12/03 11:45:01;;;;;;;;;;;2.20;99.90;;;;;;5033850;28;19905;-70
2022/12/03 11:47:27;;;;;;;;;;;2.10;99.90;;;;;;5033127;28;19915;-70
2022/12/03 11:49:53;;;;;;;;;;;2.10;99.90;;;;;;5031854;28;20293;-70
2022/12/03 11:52:22;;;;;;;;;;;2.00;99.90;;;;;;5034947;28;19913;-71
2022/12/03 11:54:49;;;;;;;;;;;2.00;99.90;;;;;;5036565;28;19909;-70
2022/12/03 11:57:24;;;;;;;;;;;2.00;99.90;;;;;;5035441;28;20212;-70
2022/12/03 11:59:56;;;;;;;;;;;2.00;99.90;;;;;;5033078;28;19983;-72
2022/12/03 12:02:23;;;;;;;;;;;2.00;99.90;;;;;;5028603;28;20289;-75
2022/12/03 12:04:49;;;;;;;;;;;2.00;99.90;;;;;;5033551;28;19909;-70
2022/12/03 12:07:34;;;;;;;;;;;2.00;99.90;;;;;;5033842;28;20300;-70
2022/12/03 12:09:59;;;;;;;;;;;2.10;99.90;;;;;;5035193;28;19918;-70
2022/12/03 12:12:36;;;;;;;;;;;2.10;99.90;;;;;;5036488;28;19916;-70
2022/12/03 12:15:21;;;;;;;;;;;2.10;99.90;;;;;;5036406;28;19910;-70
2022/12/03 12:17:47;;;;;;;;;;;2.10;99.90;;;;;;5031689;28;19909;-70
2022/12/03 12:20:32;;;;;;;;;;;2.10;99.90;;;;;;5035462;28;19983;-75
2022/12/03 12:23:18;;;;;;;;;;;2.10;99.90;;;;;;5033880;28;20004;-70
2022/12/03 12:25:45;;;;;;;;;;;2.10;99.90;;;;;;5030790;28;20220;-70
2022/12/03 12:28:11;;;;;;;;;;;2.10;99.90;;;;;;5034402;28;20000;-76
2022/12/03 12:30:37;;;;;;;;;;;2.10;99.90;;;;;;5035622;28;19996;-70
2022/12/03 12:33:10;;;;;;;;;;;2.10;99.90;;;;;;5036055;28;19913;-70
2022/12/03 12:35:35;;;;;;;;;;;2.00;99.90;;;;;;5031214;28;19924;-70
2022/12/03 12:38:10;;;;;;;;;;;2.00;99.90;;;;;;5032757;28;19909;-70
2022/12/03 12:40:37;;;;;;;;;;;1.90;99.90;;;;;;5029695;28;19985;-70
2022/12/03 12:43:24;;;;;;;;;;;2.00;99.90;;;;;;5035841;28;19915;-70
2022/12/03 12:45:51;;;;;;;;;;;1.90;99.90;;;;;;5030843;28;19909;-71
2022/12/03 12:48:21;;;;;;;;;;;2.00;99.90;;;;;;5035099;28;19909;-71
2022/12/03 12:50:49;;;;;;;;;;;2.10;99.90;;;;;;5034290;28;20302;-69
2022/12/03 12:53:15;;;;;;;;;;;2.00;99.90;;;;;;5034877;28;19909;-72
2022/12/03 12:55:40;;;;;;;;;;;2.00;99.90;;;;;;5035901;28;19996;-74
2022/12/03 12:58:16;;;;;;;;;;;2.00;99.90;;;;;;5031409;28;20211;-70
2022/12/03 13:00:43;;;;;;;;;;;2.00;99.90;;;;;;5031919;28;19916;-74
2022/12/03 13:03:10;;;;;;;;;;;2.00;99.90;;;;;;5034796;28;20322;-70
2022/12/03 13:05:43;;;;;;;;;;;2.00;99.90;;;;;;5030780;28;19999;-71
2022/12/03 13:08:15;;;;;;;;;;;2.00;99.90;;;;;;5025729;28;20334;-75
2022/12/03 13:10:41;;;;;;;;;;;2.00;99.90;;;;;;5031570;28;19909;-75
2022/12/03 13:13:12;;;;;;;;;;;1.90;99.90;;;;;;5012063;28;19944;-70
2022/12/03 13:15:49;;;;;;;;;;;1.90;99.90;;;;;;5031605;28;19909;-75
2022/12/03 13:18:24;;;;;;;;;;;1.90;99.90;;;;;;5029476;28;20387;-70
2022/12/03 13:20:49;;;;;;;;;;;1.90;99.90;;;;;;5030923;28;19940;-71
2022/12/03 13:23:26;;;;;;;;;;;2.00;99.90;;;;;;5034415;28;20300;-75
2022/12/03 13:25:51;;;;;;;;;;;1.90;99.90;;;;;;5032036;28;19909;-70
2022/12/03 13:28:18;;;;;;;;;;;1.80;99.90;;;;;;5031612;28;20319;-70
2022/12/03 13:30:43;;;;;;;;;;;1.90;99.90;;;;;;5032746;28;20204;-70
2022/12/03 13:33:14;;;;;;;;;;;1.80;99.90;;;;;;5035486;28;19920;-70
2022/12/03 13:35:42;;;;;;;;;;;1.90;99.90;;;;;;5018279;28;19905;-70
2022/12/03 13:38:12;;;;;;;;;;;1.90;99.90;;;;;;5025175;28;19913;-70
2022/12/03 13:40:38;;;;;;;;;;;1.90;99.90;;;;;;5034601;28;20196;-70
2022/12/03 13:43:08;;;;;;;;;;;1.90;99.90;;;;;;5034781;28;19909;-70
2022/12/03 13:45:34;;;;;;;;;;;1.90;99.90;;;;;;5034310;28;19920;-74
2022/12/03 13:48:01;;;;;;;;;;;1.80;99.90;;;;;;5029965;28;19909;-70
2022/12/03 13:50:35;;;;;;;;;;;1.80;99.90;;;;;;5029135;28;20300;-70
2022/12/03 13:53:24;;;;;;;;;;;1.80;99.90;;;;;;5035323;28;19915;-74
2022/12/03 13:55:52;;;;;;;;;;;1.70;99.90;;;;;;5026486;28;19916;-70
2022/12/03 13:58:17;;;;;;;;;;;1.70;99.90;;;;;;5024824;28;19913;-70
2022/12/03 14:00:43;;;;;;;;;;;1.70;99.90;;;;;;5029343;28;20265;-76
2022/12/03 14:03:09;;;;;;;;;;;1.70;99.90;;;;;;5032538;28;19909;-70
2022/12/03 14:05:35;;;;;;;;;;;1.70;99.90;;;;;;5030264;28;19971;-70
2022/12/03 14:08:00;;;;;;;;;;;1.70;99.90;;;;;;5035055;28;19905;-70
2022/12/03 14:10:26;;;;;;;;;;;1.70;99.90;;;;;;5034673;28;20254;-70
2022/12/03 14:12:52;;;;;;;;;;;1.70;99.90;;;;;;5031632;28;19975;-70
2022/12/03 14:15:18;;;;;;;;;;;1.70;99.90;;;;;;5023304;28;20327;-70
2022/12/03 14:17:43;;;;;;;;;;;1.70;99.90;;;;;;5034734;28;20308;-74
2022/12/03 14:20:09;;;;;;;;;;;1.60;99.90;;;;;;5034516;28;19921;-74
2022/12/03 14:22:38;;;;;;;;;;;1.70;99.90;;;;;;5033574;28;19931;-74
2022/12/03 14:25:04;;;;;;;;;;;1.70;99.90;;;;;;5025567;28;19905;-76
2022/12/03 14:27:30;;;;;;;;;;;1.60;99.90;;;;;;5019765;28;19971;-70
2022/12/03 14:29:55;;;;;;;;;;;1.60;99.90;;;;;;5025428;28;19913;-70
2022/12/03 14:32:21;;;;;;;;;;;1.50;99.90;;;;;;5031509;28;20309;-71
2022/12/03 14:34:46;;;;;;;;;;;1.50;99.90;;;;;;5034022;28;19905;-74
2022/12/03 14:37:12;;;;;;;;;;;1.50;99.90;;;;;;5021471;28;19913;-70
2022/12/03 14:39:37;;;;;;;;;;;1.50;99.90;;;;;;5020934;28;19980;-70
2022/12/03 14:42:12;;;;;;;;;;;1.50;99.90;;;;;;5026626;28;20009;-70
2022/12/03 14:44:38;;;;;;;;;;;1.50;99.90;;;;;;5021111;28;19909;-70
2022/12/03 14:47:04;;;;;;;;;;;1.50;99.90;;;;;;5026253;28;19971;-70
2022/12/03 14:49:29;;;;;;;;;;;1.40;99.90;;;;;;5032512;28;20288;-69
2022/12/03 14:51:55;;;;;;;;;;;1.40;99.90;;;;;;5028567;28;19913;-71
2022/12/03 14:54:21;;;;;;;;;;;1.40;99.90;;;;;;5018182;28;19913;-70